Airfield :







YOU CAN JOIN US ON...

 
LOGIN :

Register | Disclaimer

   EN    FR    IT 

 









Legend :    VFR   Marginal VFR   IFR   Intensive IFR   Very Intensive IFR
Visi :
Ceiling :
>= 8 km
>= 3000ft
5 to 8 km
1000 to 3000 ft
1500m to 5 km
500 to 1000 ft
800 to 1500m
200 to 500 ft
< 800m
< 200 ft
Symbols :   Thunderstorms  Fog  Heavy snow  Heavy precipitations  Wind > 20 kt






- Airport Elevation : 84 ft
- IATA code : YJT


CYJT - Stephenville

CURRENT METAR :
  • 291100Z 04002KT 15SM -SN OVC020 M04/M06 A2957 RMK SC8 SLP015

EXPIRED METARs :
  • 291000Z 00000KT 15SM -SN BKN022 M04/M06 A2957 RMK SC7 SLP016
  • 290900Z 36003KT 15SM -SN BKN023 M04/M06 A2958 RMK SC7 SLP019

TAF TAF CYJT
Valid from the 29 at 12:00 until the 30 at 12:00 UTC


291138Z 2912/3012 VRB03KT P6SM BKN025
TEMPO 2912/2914 3SM -SHSN OVC015
FM291400 30007KT P6SM -SHSN OVC025
TEMPO 2914/2923 21/2SM -SHSN OVC015
PROB30 2916/2923 11/2SM -SHSN
FM292300 07010KT P6SM -SN BKN015 OVC040
BECMG 3004/3006 02008KT RMK NXT FCST BY 291800Z



MET'MAP, your aeronautical weather chart ! - Copyright ORBIFLY December 2007 - Disclaimer

ORBIFLY MET'MAP TEAM :

Programming & Development : Alexandra Zaïnal
Concept & original design : Baudouin d'Aumeries
Assistance for programming : Marc-Olivier Méhu
Technical & hardware support : Manuel Goepfert

Contact : metmap@orbifly.com




SOURCES & CREDITS :

   NOAA